Clines Corners, New Mexico
Current Conditions -  °F | °C
As of 6:53 AM on Thursday 27 Nov 2014 (Local Time) from KCQC Reporting Station
Clear Clear  
Wind Chill: 21°   Ceiling: Unl
Heat Index: 30°   Visibility: 10mi
Dew Point: 21°   Wind: 12mph
Humidity: 69%   Direction: 300°WNW
Pressure: 30.41"   Gusts: NA
Location:  35.01°N, 105.67°W
Report Text: KCQC 271353Z AUTO 30010KT 10SM CLR M01/M06 A3041 RMK AO2 SLP295 T10111061
Loading
Personal Weather Stations






























Interactive Weather Map New forecast layout! Learn more

10-Day Weather Forecast

Advertisements
Track Severe Weather on mobile